sensor_id;sensor_type;location;lat;lon;timestamp;temperature;humidity
6824;DHT22;58633;49.470;11.004;2023-05-29T00:01:13;19.00;45.20
6824;DHT22;58633;49.470;11.004;2023-05-29T00:03:38;18.90;45.30
6824;DHT22;58633;49.470;11.004;2023-05-29T00:06:04;18.90;45.50
6824;DHT22;58633;49.470;11.004;2023-05-29T00:08:31;18.90;45.80
6824;DHT22;58633;49.470;11.004;2023-05-29T00:10:57;18.90;46.00
6824;DHT22;58633;49.470;11.004;2023-05-29T00:13:23;18.80;46.00
6824;DHT22;58633;49.470;11.004;2023-05-29T00:15:48;18.80;46.00
6824;DHT22;58633;49.470;11.004;2023-05-29T00:18:14;18.70;45.90
6824;DHT22;58633;49.470;11.004;2023-05-29T00:20:39;18.70;46.00
6824;DHT22;58633;49.470;11.004;2023-05-29T00:23:05;18.70;45.90
6824;DHT22;58633;49.470;11.004;2023-05-29T00:25:32;18.70;45.90
6824;DHT22;58633;49.470;11.004;2023-05-29T00:27:57;18.80;46.10
6824;DHT22;58633;49.470;11.004;2023-05-29T00:30:23;18.60;46.20
6824;DHT22;58633;49.470;11.004;2023-05-29T00:32:48;18.60;46.40
6824;DHT22;58633;49.470;11.004;2023-05-29T00:35:15;18.50;46.30
6824;DHT22;58633;49.470;11.004;2023-05-29T00:37:40;18.50;46.50
6824;DHT22;58633;49.470;11.004;2023-05-29T00:40:06;18.40;46.60
6824;DHT22;58633;49.470;11.004;2023-05-29T00:42:32;18.40;46.80
6824;DHT22;58633;49.470;11.004;2023-05-29T00:44:58;18.40;47.00
6824;DHT22;58633;49.470;11.004;2023-05-29T00:47:24;18.30;46.90
6824;DHT22;58633;49.470;11.004;2023-05-29T00:49:50;18.30;46.90
6824;DHT22;58633;49.470;11.004;2023-05-29T00:52:17;18.20;47.00
6824;DHT22;58633;49.470;11.004;2023-05-29T00:54:44;18.20;47.10
6824;DHT22;58633;49.470;11.004;2023-05-29T00:57:12;18.10;47.20
6824;DHT22;58633;49.470;11.004;2023-05-29T00:59:39;18.10;47.30
6824;DHT22;58633;49.470;11.004;2023-05-29T01:02:06;18.00;47.40
6824;DHT22;58633;49.470;11.004;2023-05-29T01:04:32;18.00;47.20
6824;DHT22;58633;49.470;11.004;2023-05-29T01:07:01;17.90;47.00
6824;DHT22;58633;49.470;11.004;2023-05-29T01:09:31;17.90;46.90
6824;DHT22;58633;49.470;11.004;2023-05-29T01:15:01;17.90;47.30
6824;DHT22;58633;49.470;11.004;2023-05-29T01:20:40;17.70;47.40
6824;DHT22;58633;49.470;11.004;2023-05-29T01:28:20;17.70;47.70
6824;DHT22;58633;49.470;11.004;2023-05-29T01:30:48;17.70;47.80
6824;DHT22;58633;49.470;11.004;2023-05-29T01:33:14;17.60;47.80
6824;DHT22;58633;49.470;11.004;2023-05-29T01:35:40;17.60;48.10
6824;DHT22;58633;49.470;11.004;2023-05-29T01:38:06;17.60;48.20
6824;DHT22;58633;49.470;11.004;2023-05-29T01:40:31;17.50;48.10
6824;DHT22;58633;49.470;11.004;2023-05-29T01:42:57;17.50;48.20
6824;DHT22;58633;49.470;11.004;2023-05-29T01:45:23;17.50;48.30
6824;DHT22;58633;49.470;11.004;2023-05-29T01:47:49;17.40;48.30
6824;DHT22;58633;49.470;11.004;2023-05-29T01:50:17;17.40;48.60
6824;DHT22;58633;49.470;11.004;2023-05-29T01:52:44;17.40;48.70
6824;DHT22;58633;49.470;11.004;2023-05-29T01:55:09;17.30;48.60
6824;DHT22;58633;49.470;11.004;2023-05-29T01:57:36;17.30;48.70
6824;DHT22;58633;49.470;11.004;2023-05-29T02:00:03;17.30;48.80
6824;DHT22;58633;49.470;11.004;2023-05-29T02:02:37;17.20;49.00
6824;DHT22;58633;49.470;11.004;2023-05-29T02:05:03;17.20;49.20
6824;DHT22;58633;49.470;11.004;2023-05-29T02:07:28;16.20;48.60
6824;DHT22;58633;49.470;11.004;2023-05-29T02:09:54;18.10;50.50
6824;DHT22;58633;49.470;11.004;2023-05-29T02:12:19;17.00;49.80
6824;DHT22;58633;49.470;11.004;2023-05-29T02:14:45;16.90;49.70
6824;DHT22;58633;49.470;11.004;2023-05-29T02:17:11;16.90;49.80
6824;DHT22;58633;49.470;11.004;2023-05-29T02:19:37;16.90;49.90
6824;DHT22;58633;49.470;11.004;2023-05-29T02:22:03;16.80;50.00
6824;DHT22;58633;49.470;11.004;2023-05-29T02:24:29;16.80;50.20
6824;DHT22;58633;49.470;11.004;2023-05-29T02:26:54;16.70;50.30
6824;DHT22;58633;49.470;11.004;2023-05-29T02:29:20;16.70;50.40
6824;DHT22;58633;49.470;11.004;2023-05-29T02:31:45;16.70;50.50
6824;DHT22;58633;49.470;11.004;2023-05-29T02:34:11;16.60;50.50
6824;DHT22;58633;49.470;11.004;2023-05-29T02:36:36;16.60;50.60
6824;DHT22;58633;49.470;11.004;2023-05-29T02:39:04;16.60;50.60
6824;DHT22;58633;49.470;11.004;2023-05-29T02:41:31;16.50;50.70
6824;DHT22;58633;49.470;11.004;2023-05-29T02:43:56;16.50;50.70
6824;DHT22;58633;49.470;11.004;2023-05-29T02:46:22;16.50;50.60
6824;DHT22;58633;49.470;11.004;2023-05-29T02:48:47;16.50;50.50
6824;DHT22;58633;49.470;11.004;2023-05-29T02:51:13;16.50;50.50
6824;DHT22;58633;49.470;11.004;2023-05-29T02:53:39;16.50;50.30
6824;DHT22;58633;49.470;11.004;2023-05-29T02:56:06;16.50;50.10
6824;DHT22;58633;49.470;11.004;2023-05-29T02:58:32;16.40;50.00
6824;DHT22;58633;49.470;11.004;2023-05-29T03:00:58;16.40;50.00
6824;DHT22;58633;49.470;11.004;2023-05-29T03:03:25;16.40;50.10
6824;DHT22;58633;49.470;11.004;2023-05-29T03:05:50;16.40;50.10
6824;DHT22;58633;49.470;11.004;2023-05-29T03:08:16;16.30;50.10
6824;DHT22;58633;49.470;11.004;2023-05-29T03:10:43;16.30;50.30
6824;DHT22;58633;49.470;11.004;2023-05-29T03:13:09;16.20;50.30
6824;DHT22;58633;49.470;11.004;2023-05-29T03:15:35;16.20;50.60
6824;DHT22;58633;49.470;11.004;2023-05-29T03:18:00;16.20;50.70
6824;DHT22;58633;49.470;11.004;2023-05-29T03:20:26;16.10;50.80
6824;DHT22;58633;49.470;11.004;2023-05-29T03:22:53;16.00;50.90
6824;DHT22;58633;49.470;11.004;2023-05-29T03:25:19;16.00;51.00
6824;DHT22;58633;49.470;11.004;2023-05-29T03:27:45;16.00;51.10
6824;DHT22;58633;49.470;11.004;2023-05-29T03:30:11;16.00;51.10
6824;DHT22;58633;49.470;11.004;2023-05-29T03:32:37;16.00;51.00
6824;DHT22;58633;49.470;11.004;2023-05-29T03:35:03;15.90;51.10
6824;DHT22;58633;49.470;11.004;2023-05-29T03:37:29;15.90;51.20
6824;DHT22;58633;49.470;11.004;2023-05-29T03:39:55;15.90;51.20
6824;DHT22;58633;49.470;11.004;2023-05-29T03:42:20;15.90;51.30
6824;DHT22;58633;49.470;11.004;2023-05-29T03:44:46;15.90;51.20
6824;DHT22;58633;49.470;11.004;2023-05-29T03:47:12;15.90;51.20
6824;DHT22;58633;49.470;11.004;2023-05-29T03:49:37;15.90;51.30
6824;DHT22;58633;49.470;11.004;2023-05-29T03:52:03;15.80;51.40
6824;DHT22;58633;49.470;11.004;2023-05-29T03:54:29;15.80;51.40
6824;DHT22;58633;49.470;11.004;2023-05-29T03:56:55;15.80;51.40
6824;DHT22;58633;49.470;11.004;2023-05-29T03:59:20;15.80;51.40
6824;DHT22;58633;49.470;11.004;2023-05-29T04:01:46;15.80;51.40
6824;DHT22;58633;49.470;11.004;2023-05-29T04:04:11;15.80;51.40
6824;DHT22;58633;49.470;11.004;2023-05-29T04:06:37;15.80;51.40
6824;DHT22;58633;49.470;11.004;2023-05-29T04:09:06;15.80;51.40
6824;DHT22;58633;49.470;11.004;2023-05-29T04:11:32;15.80;51.50
6824;DHT22;58633;49.470;11.004;2023-05-29T04:14:02;15.80;51.50
6824;DHT22;58633;49.470;11.004;2023-05-29T04:16:28;15.70;51.50
6824;DHT22;58633;49.470;11.004;2023-05-29T04:18:54;15.80;51.60
6824;DHT22;58633;49.470;11.004;2023-05-29T04:21:20;15.80;51.80
6824;DHT22;58633;49.470;11.004;2023-05-29T04:23:46;15.70;52.00
6824;DHT22;58633;49.470;11.004;2023-05-29T04:26:12;15.80;52.20
6824;DHT22;58633;49.470;11.004;2023-05-29T04:28:38;15.80;52.20
6824;DHT22;58633;49.470;11.004;2023-05-29T04:31:04;15.80;52.20
6824;DHT22;58633;49.470;11.004;2023-05-29T04:33:31;15.80;52.10
6824;DHT22;58633;49.470;11.004;2023-05-29T04:35:57;15.80;52.10
6824;DHT22;58633;49.470;11.004;2023-05-29T04:38:26;15.80;52.10
6824;DHT22;58633;49.470;11.004;2023-05-29T04:40:52;15.80;52.10
6824;DHT22;58633;49.470;11.004;2023-05-29T04:43:18;15.80;52.10
6824;DHT22;58633;49.470;11.004;2023-05-29T04:45:43;15.80;52.10
6824;DHT22;58633;49.470;11.004;2023-05-29T04:48:09;15.80;52.20
6824;DHT22;58633;49.470;11.004;2023-05-29T04:50:35;15.80;52.30
6824;DHT22;58633;49.470;11.004;2023-05-29T04:53:02;16.00;52.50
6824;DHT22;58633;49.470;11.004;2023-05-29T04:55:27;15.20;51.90
6824;DHT22;58633;49.470;11.004;2023-05-29T04:57:53;15.80;52.40
6824;DHT22;58633;49.470;11.004;2023-05-29T05:00:19;15.90;52.50
6824;DHT22;58633;49.470;11.004;2023-05-29T05:02:45;15.90;52.30
6824;DHT22;58633;49.470;11.004;2023-05-29T05:05:11;15.90;52.30
6824;DHT22;58633;49.470;11.004;2023-05-29T05:07:37;15.90;52.30
6824;DHT22;58633;49.470;11.004;2023-05-29T05:10:04;15.90;52.90
6824;DHT22;58633;49.470;11.004;2023-05-29T05:12:29;16.00;52.50
6824;DHT22;58633;49.470;11.004;2023-05-29T05:14:55;16.00;52.40
6824;DHT22;58633;49.470;11.004;2023-05-29T05:17:21;16.00;52.40
6824;DHT22;58633;49.470;11.004;2023-05-29T05:19:47;16.00;52.30
6824;DHT22;58633;49.470;11.004;2023-05-29T05:22:14;16.10;52.50
6824;DHT22;58633;49.470;11.004;2023-05-29T05:24:40;16.10;52.50
6824;DHT22;58633;49.470;11.004;2023-05-29T05:27:05;16.10;52.70
6824;DHT22;58633;49.470;11.004;2023-05-29T05:29:31;16.10;52.90
6824;DHT22;58633;49.470;11.004;2023-05-29T05:31:57;16.10;53.00
6824;DHT22;58633;49.470;11.004;2023-05-29T05:34:22;16.10;53.00
6824;DHT22;58633;49.470;11.004;2023-05-29T05:36:48;16.20;52.90
6824;DHT22;58633;49.470;11.004;2023-05-29T05:39:14;16.20;52.80
6824;DHT22;58633;49.470;11.004;2023-05-29T05:41:40;16.30;52.80
6824;DHT22;58633;49.470;11.004;2023-05-29T05:44:05;16.30;53.30
6824;DHT22;58633;49.470;11.004;2023-05-29T05:46:31;16.30;52.70
6824;DHT22;58633;49.470;11.004;2023-05-29T05:48:57;17.40;53.60
6824;DHT22;58633;49.470;11.004;2023-05-29T05:51:23;16.40;52.70
6824;DHT22;58633;49.470;11.004;2023-05-29T05:53:49;16.50;52.80
6824;DHT22;58633;49.470;11.004;2023-05-29T05:56:14;16.50;52.80
6824;DHT22;58633;49.470;11.004;2023-05-29T05:58:40;16.60;52.70
6824;DHT22;58633;49.470;11.004;2023-05-29T06:01:07;16.60;52.60
6824;DHT22;58633;49.470;11.004;2023-05-29T06:03:33;16.60;52.40
6824;DHT22;58633;49.470;11.004;2023-05-29T06:05:59;16.70;52.50
6824;DHT22;58633;49.470;11.004;2023-05-29T06:08:25;16.70;52.50
6824;DHT22;58633;49.470;11.004;2023-05-29T06:10:51;16.80;52.40
6824;DHT22;58633;49.470;11.004;2023-05-29T06:13:17;16.90;52.30
6824;DHT22;58633;49.470;11.004;2023-05-29T06:15:43;16.90;52.20
6824;DHT22;58633;49.470;11.004;2023-05-29T06:18:08;16.90;52.10
6824;DHT22;58633;49.470;11.004;2023-05-29T06:20:34;17.00;51.80
6824;DHT22;58633;49.470;11.004;2023-05-29T06:22:59;17.80;52.20
6824;DHT22;58633;49.470;11.004;2023-05-29T06:25:25;17.10;51.40
6824;DHT22;58633;49.470;11.004;2023-05-29T06:28:01;17.20;51.40
6824;DHT22;58633;49.470;11.004;2023-05-29T06:30:27;17.20;51.40
6824;DHT22;58633;49.470;11.004;2023-05-29T06:32:53;17.40;51.50
6824;DHT22;58633;49.470;11.004;2023-05-29T06:35:19;17.40;51.30
6824;DHT22;58633;49.470;11.004;2023-05-29T06:37:45;17.40;50.90
6824;DHT22;58633;49.470;11.004;2023-05-29T06:40:14;17.50;50.60
6824;DHT22;58633;49.470;11.004;2023-05-29T06:42:42;17.60;50.40
6824;DHT22;58633;49.470;11.004;2023-05-29T06:45:12;17.60;50.20
6824;DHT22;58633;49.470;11.004;2023-05-29T06:47:39;17.70;50.10
6824;DHT22;58633;49.470;11.004;2023-05-29T06:50:06;17.70;50.00
6824;DHT22;58633;49.470;11.004;2023-05-29T06:52:32;17.70;49.80
6824;DHT22;58633;49.470;11.004;2023-05-29T06:54:57;17.80;49.70
6824;DHT22;58633;49.470;11.004;2023-05-29T06:57:23;17.80;49.70
6824;DHT22;58633;49.470;11.004;2023-05-29T06:59:48;17.90;49.70
6824;DHT22;58633;49.470;11.004;2023-05-29T07:02:14;18.00;49.60
6824;DHT22;58633;49.470;11.004;2023-05-29T07:04:39;18.10;49.60
6824;DHT22;58633;49.470;11.004;2023-05-29T07:07:05;18.10;49.30
6824;DHT22;58633;49.470;11.004;2023-05-29T07:09:30;18.10;49.20
6824;DHT22;58633;49.470;11.004;2023-05-29T07:11:56;18.20;49.20
6824;DHT22;58633;49.470;11.004;2023-05-29T07:14:22;18.30;49.20
6824;DHT22;58633;49.470;11.004;2023-05-29T07:16:47;18.30;49.10
6824;DHT22;58633;49.470;11.004;2023-05-29T07:19:12;18.40;49.20
6824;DHT22;58633;49.470;11.004;2023-05-29T07:21:39;18.40;49.20
6824;DHT22;58633;49.470;11.004;2023-05-29T07:24:05;20.10;50.50
6824;DHT22;58633;49.470;11.004;2023-05-29T07:26:31;18.60;49.10
6824;DHT22;58633;49.470;11.004;2023-05-29T07:28:57;18.70;49.20
6824;DHT22;58633;49.470;11.004;2023-05-29T07:31:23;19.20;49.30
6824;DHT22;58633;49.470;11.004;2023-05-29T07:33:48;18.90;48.70
6824;DHT22;58633;49.470;11.004;2023-05-29T07:36:15;19.20;48.70
6824;DHT22;58633;49.470;11.004;2023-05-29T07:38:42;19.00;48.30
6824;DHT22;58633;49.470;11.004;2023-05-29T07:41:08;19.10;48.10
6824;DHT22;58633;49.470;11.004;2023-05-29T07:43:33;19.10;47.70
6824;DHT22;58633;49.470;11.004;2023-05-29T07:45:59;19.20;47.50
6824;DHT22;58633;49.470;11.004;2023-05-29T07:48:25;19.20;47.30
6824;DHT22;58633;49.470;11.004;2023-05-29T07:50:50;19.40;47.20
6824;DHT22;58633;49.470;11.004;2023-05-29T07:53:17;19.40;46.80
6824;DHT22;58633;49.470;11.004;2023-05-29T07:55:42;19.50;46.50
6824;DHT22;58633;49.470;11.004;2023-05-29T07:58:08;19.50;46.30
6824;DHT22;58633;49.470;11.004;2023-05-29T08:00:36;19.60;46.10
6824;DHT22;58633;49.470;11.004;2023-05-29T08:03:03;19.70;45.90
6824;DHT22;58633;49.470;11.004;2023-05-29T08:05:29;19.80;45.70
6824;DHT22;58633;49.470;11.004;2023-05-29T08:07:54;19.80;45.50
6824;DHT22;58633;49.470;11.004;2023-05-29T08:10:20;20.00;45.50
6824;DHT22;58633;49.470;11.004;2023-05-29T08:12:46;20.00;45.30
6824;DHT22;58633;49.470;11.004;2023-05-29T08:15:11;20.00;44.90
6824;DHT22;58633;49.470;11.004;2023-05-29T08:17:37;20.10;44.50
6824;DHT22;58633;49.470;11.004;2023-05-29T08:20:03;20.20;44.00
6824;DHT22;58633;49.470;11.004;2023-05-29T08:22:32;20.30;43.50
6824;DHT22;58633;49.470;11.004;2023-05-29T08:24:59;20.40;42.90
6824;DHT22;58633;49.470;11.004;2023-05-29T08:27:24;20.50;42.60
6824;DHT22;58633;49.470;11.004;2023-05-29T08:29:50;20.70;42.20
6824;DHT22;58633;49.470;11.004;2023-05-29T08:32:16;20.70;41.90
6824;DHT22;58633;49.470;11.004;2023-05-29T08:34:41;20.70;41.70
6824;DHT22;58633;49.470;11.004;2023-05-29T08:37:07;20.80;41.80
6824;DHT22;58633;49.470;11.004;2023-05-29T08:39:33;20.80;41.90
6824;DHT22;58633;49.470;11.004;2023-05-29T08:42:04;21.00;41.90
6824;DHT22;58633;49.470;11.004;2023-05-29T08:44:33;21.10;41.60
6824;DHT22;58633;49.470;11.004;2023-05-29T08:47:01;21.20;41.30
6824;DHT22;58633;49.470;11.004;2023-05-29T08:49:31;21.30;41.20
6824;DHT22;58633;49.470;11.004;2023-05-29T08:52:15;21.30;41.10
6824;DHT22;58633;49.470;11.004;2023-05-29T08:54:41;21.30;40.80
6824;DHT22;58633;49.470;11.004;2023-05-29T08:57:07;21.40;40.70
6824;DHT22;58633;49.470;11.004;2023-05-29T08:59:33;21.40;40.50
6824;DHT22;58633;49.470;11.004;2023-05-29T09:02:00;21.40;40.50
6824;DHT22;58633;49.470;11.004;2023-05-29T09:04:27;21.40;40.40
6824;DHT22;58633;49.470;11.004;2023-05-29T09:06:53;21.60;40.20
6824;DHT22;58633;49.470;11.004;2023-05-29T09:09:20;21.60;40.30
6824;DHT22;58633;49.470;11.004;2023-05-29T09:11:46;21.70;40.30
6824;DHT22;58633;49.470;11.004;2023-05-29T09:14:43;21.80;40.10
6824;DHT22;58633;49.470;11.004;2023-05-29T09:17:11;22.00;39.30
6824;DHT22;58633;49.470;11.004;2023-05-29T09:19:37;22.10;39.00
6824;DHT22;58633;49.470;11.004;2023-05-29T09:22:07;22.20;38.60
6824;DHT22;58633;49.470;11.004;2023-05-29T09:24:34;22.30;38.20
6824;DHT22;58633;49.470;11.004;2023-05-29T09:27:00;22.30;38.00
6824;DHT22;58633;49.470;11.004;2023-05-29T09:29:30;22.40;37.90
6824;DHT22;58633;49.470;11.004;2023-05-29T09:31:56;22.50;37.80
6824;DHT22;58633;49.470;11.004;2023-05-29T09:34:26;22.70;37.80
6824;DHT22;58633;49.470;11.004;2023-05-29T09:36:53;22.70;37.50
6824;DHT22;58633;49.470;11.004;2023-05-29T09:39:18;22.70;37.40
6824;DHT22;58633;49.470;11.004;2023-05-29T09:41:45;22.80;37.40
6824;DHT22;58633;49.470;11.004;2023-05-29T09:44:15;22.90;37.90
6824;DHT22;58633;49.470;11.004;2023-05-29T09:46:41;23.00;37.80
6824;DHT22;58633;49.470;11.004;2023-05-29T09:49:12;23.80;37.70
6824;DHT22;58633;49.470;11.004;2023-05-29T09:51:38;23.20;37.10
6824;DHT22;58633;49.470;11.004;2023-05-29T09:54:17;23.30;36.90
6824;DHT22;58633;49.470;11.004;2023-05-29T09:56:44;23.40;36.80
6824;DHT22;58633;49.470;11.004;2023-05-29T09:59:11;23.40;36.20
6824;DHT22;58633;49.470;11.004;2023-05-29T10:01:42;23.50;35.60
6824;DHT22;58633;49.470;11.004;2023-05-29T10:04:12;23.60;35.20
6824;DHT22;58633;49.470;11.004;2023-05-29T10:06:43;23.70;35.10
6824;DHT22;58633;49.470;11.004;2023-05-29T10:09:11;23.70;35.10
6824;DHT22;58633;49.470;11.004;2023-05-29T10:11:43;23.80;36.20
6824;DHT22;58633;49.470;11.004;2023-05-29T10:14:13;23.80;36.80
6824;DHT22;58633;49.470;11.004;2023-05-29T10:16:42;23.80;37.50
6824;DHT22;58633;49.470;11.004;2023-05-29T10:19:12;23.80;38.00
6824;DHT22;58633;49.470;11.004;2023-05-29T10:21:40;23.90;37.90
6824;DHT22;58633;49.470;11.004;2023-05-29T10:24:07;24.00;37.40
6824;DHT22;58633;49.470;11.004;2023-05-29T10:26:36;24.00;37.40
6824;DHT22;58633;49.470;11.004;2023-05-29T10:32:07;24.10;38.10
6824;DHT22;58633;49.470;11.004;2023-05-29T10:40:08;24.20;38.60
6824;DHT22;58633;49.470;11.004;2023-05-29T10:42:50;24.20;38.50
6824;DHT22;58633;49.470;11.004;2023-05-29T10:50:42;24.40;37.30
6824;DHT22;58633;49.470;11.004;2023-05-29T10:53:09;24.40;37.60
6824;DHT22;58633;49.470;11.004;2023-05-29T10:55:39;24.40;36.70
6824;DHT22;58633;49.470;11.004;2023-05-29T10:58:15;24.50;35.90
6824;DHT22;58633;49.470;11.004;2023-05-29T11:00:45;24.80;34.80
6824;DHT22;58633;49.470;11.004;2023-05-29T11:03:21;25.20;33.70
6824;DHT22;58633;49.470;11.004;2023-05-29T11:06:19;25.50;33.10
6824;DHT22;58633;49.470;11.004;2023-05-29T11:08:56;25.70;33.50
6824;DHT22;58633;49.470;11.004;2023-05-29T11:11:29;25.80;33.20
6824;DHT22;58633;49.470;11.004;2023-05-29T11:13:56;26.10;33.50
6824;DHT22;58633;49.470;11.004;2023-05-29T11:19:03;26.50;33.40
6824;DHT22;58633;49.470;11.004;2023-05-29T11:24:22;27.00;33.00
6824;DHT22;58633;49.470;11.004;2023-05-29T11:26:50;27.00;32.90
6824;DHT22;58633;49.470;11.004;2023-05-29T11:29:24;27.20;32.60
6824;DHT22;58633;49.470;11.004;2023-05-29T11:32:06;27.40;32.20
6824;DHT22;58633;49.470;11.004;2023-05-29T11:34:40;27.40;32.10
6824;DHT22;58633;49.470;11.004;2023-05-29T11:37:06;27.50;32.50
6824;DHT22;58633;49.470;11.004;2023-05-29T11:39:35;27.60;31.90
6824;DHT22;58633;49.470;11.004;2023-05-29T11:42:01;27.60;31.90
6824;DHT22;58633;49.470;11.004;2023-05-29T11:44:27;27.70;32.30
6824;DHT22;58633;49.470;11.004;2023-05-29T11:47:04;27.80;32.20
6824;DHT22;58633;49.470;11.004;2023-05-29T11:49:31;27.90;32.00
6824;DHT22;58633;49.470;11.004;2023-05-29T11:52:08;28.00;32.30
6824;DHT22;58633;49.470;11.004;2023-05-29T11:54:34;28.10;32.10
6824;DHT22;58633;49.470;11.004;2023-05-29T11:57:00;28.20;32.40
6824;DHT22;58633;49.470;11.004;2023-05-29T11:59:34;28.20;32.20
6824;DHT22;58633;49.470;11.004;2023-05-29T12:02:02;28.40;31.90
6824;DHT22;58633;49.470;11.004;2023-05-29T12:04:28;28.50;32.00
6824;DHT22;58633;49.470;11.004;2023-05-29T12:06:54;28.70;31.90
6824;DHT22;58633;49.470;11.004;2023-05-29T12:09:27;28.80;31.00
6824;DHT22;58633;49.470;11.004;2023-05-29T12:12:02;29.00;31.10
6824;DHT22;58633;49.470;11.004;2023-05-29T12:14:28;29.20;30.90
6824;DHT22;58633;49.470;11.004;2023-05-29T12:16:53;29.50;31.00
6824;DHT22;58633;49.470;11.004;2023-05-29T12:19:19;31.10;30.50
6824;DHT22;58633;49.470;11.004;2023-05-29T12:21:45;33.50;29.20
6824;DHT22;58633;49.470;11.004;2023-05-29T12:24:11;35.70;27.40
6824;DHT22;58633;49.470;11.004;2023-05-29T12:26:37;37.20;25.90
6824;DHT22;58633;49.470;11.004;2023-05-29T12:29:03;37.50;25.10
6824;DHT22;58633;49.470;11.004;2023-05-29T12:31:33;38.00;25.00
6824;DHT22;58633;49.470;11.004;2023-05-29T12:34:11;37.30;24.20
6824;DHT22;58633;49.470;11.004;2023-05-29T12:36:41;35.50;24.60
6824;DHT22;58633;49.470;11.004;2023-05-29T12:39:07;33.60;26.10
6824;DHT22;58633;49.470;11.004;2023-05-29T12:41:37;32.20;27.20
6824;DHT22;58633;49.470;11.004;2023-05-29T12:44:05;31.20;28.30
6824;DHT22;58633;49.470;11.004;2023-05-29T12:46:39;31.20;28.70
6824;DHT22;58633;49.470;11.004;2023-05-29T12:49:16;30.30;29.10
6824;DHT22;58633;49.470;11.004;2023-05-29T12:51:43;30.10;28.90
6824;DHT22;58633;49.470;11.004;2023-05-29T12:54:15;30.00;29.30
6824;DHT22;58633;49.470;11.004;2023-05-29T12:56:42;29.90;29.50
6824;DHT22;58633;49.470;11.004;2023-05-29T12:59:08;29.90;29.70
6824;DHT22;58633;49.470;11.004;2023-05-29T13:01:34;29.80;29.80
6824;DHT22;58633;49.470;11.004;2023-05-29T13:04:00;29.80;29.80
6824;DHT22;58633;49.470;11.004;2023-05-29T13:06:25;29.80;29.40
6824;DHT22;58633;49.470;11.004;2023-05-29T13:08:51;29.80;29.30
6824;DHT22;58633;49.470;11.004;2023-05-29T13:11:17;29.80;28.90
6824;DHT22;58633;49.470;11.004;2023-05-29T13:13:43;29.80;29.00
6824;DHT22;58633;49.470;11.004;2023-05-29T13:16:09;29.80;29.30
6824;DHT22;58633;49.470;11.004;2023-05-29T13:18:34;29.70;29.00
6824;DHT22;58633;49.470;11.004;2023-05-29T13:21:00;29.70;28.80
6824;DHT22;58633;49.470;11.004;2023-05-29T13:23:26;29.70;28.70
6824;DHT22;58633;49.470;11.004;2023-05-29T13:25:51;29.70;28.90
6824;DHT22;58633;49.470;11.004;2023-05-29T13:28:17;30.00;29.00
6824;DHT22;58633;49.470;11.004;2023-05-29T13:30:43;29.70;29.00
6824;DHT22;58633;49.470;11.004;2023-05-29T13:33:09;29.70;29.00
6824;DHT22;58633;49.470;11.004;2023-05-29T13:35:35;29.70;29.10
6824;DHT22;58633;49.470;11.004;2023-05-29T13:38:00;29.70;29.20
6824;DHT22;58633;49.470;11.004;2023-05-29T13:40:26;29.80;29.00
6824;DHT22;58633;49.470;11.004;2023-05-29T13:42:51;29.90;29.00
6824;DHT22;58633;49.470;11.004;2023-05-29T13:45:17;29.90;29.00
6824;DHT22;58633;49.470;11.004;2023-05-29T13:47:43;29.80;28.90
6824;DHT22;58633;49.470;11.004;2023-05-29T13:50:08;29.90;28.90
6824;DHT22;58633;49.470;11.004;2023-05-29T13:52:34;29.80;29.40
6824;DHT22;58633;49.470;11.004;2023-05-29T13:55:00;29.40;30.40
6824;DHT22;58633;49.470;11.004;2023-05-29T13:57:31;28.90;31.30
6824;DHT22;58633;49.470;11.004;2023-05-29T13:59:57;28.60;31.90
6824;DHT22;58633;49.470;11.004;2023-05-29T14:02:25;28.30;32.20
6824;DHT22;58633;49.470;11.004;2023-05-29T14:04:51;28.10;32.10
6824;DHT22;58633;49.470;11.004;2023-05-29T14:07:17;28.00;32.10
6824;DHT22;58633;49.470;11.004;2023-05-29T14:09:42;27.90;33.20
6824;DHT22;58633;49.470;11.004;2023-05-29T14:12:08;27.70;33.90
6824;DHT22;58633;49.470;11.004;2023-05-29T14:14:34;27.30;36.70
6824;DHT22;58633;49.470;11.004;2023-05-29T14:17:00;26.70;39.30
6824;DHT22;58633;49.470;11.004;2023-05-29T14:19:26;26.20;40.90
6824;DHT22;58633;49.470;11.004;2023-05-29T14:21:52;26.00;41.40
6824;DHT22;58633;49.470;11.004;2023-05-29T14:24:17;26.00;40.20
6824;DHT22;58633;49.470;11.004;2023-05-29T14:26:45;25.80;42.20
6824;DHT22;58633;49.470;11.004;2023-05-29T14:29:12;25.70;44.60
6824;DHT22;58633;49.470;11.004;2023-05-29T14:31:39;25.70;46.20
6824;DHT22;58633;49.470;11.004;2023-05-29T14:34:05;25.80;46.60
6824;DHT22;58633;49.470;11.004;2023-05-29T14:36:30;25.80;46.80
6824;DHT22;58633;49.470;11.004;2023-05-29T14:38:56;26.00;46.60
6824;DHT22;58633;49.470;11.004;2023-05-29T14:41:21;26.40;46.40
6824;DHT22;58633;49.470;11.004;2023-05-29T14:43:47;26.30;45.60
6824;DHT22;58633;49.470;11.004;2023-05-29T14:46:13;27.80;47.00
6824;DHT22;58633;49.470;11.004;2023-05-29T14:48:39;25.20;44.10
6824;DHT22;58633;49.470;11.004;2023-05-29T14:51:05;26.70;44.90
6824;DHT22;58633;49.470;11.004;2023-05-29T14:53:35;26.60;43.00
6824;DHT22;58633;49.470;11.004;2023-05-29T14:56:03;26.60;41.50
6824;DHT22;58633;49.470;11.004;2023-05-29T14:58:29;25.70;41.60
6824;DHT22;58633;49.470;11.004;2023-05-29T15:00:55;27.90;44.20
6824;DHT22;58633;49.470;11.004;2023-05-29T15:03:21;26.70;43.60
6824;DHT22;58633;49.470;11.004;2023-05-29T15:05:52;26.80;44.00
6824;DHT22;58633;49.470;11.004;2023-05-29T15:08:18;27.00;41.90
6824;DHT22;58633;49.470;11.004;2023-05-29T15:10:47;28.10;41.80
6824;DHT22;58633;49.470;11.004;2023-05-29T15:13:13;27.90;41.30
6824;DHT22;58633;49.470;11.004;2023-05-29T15:15:44;25.90;40.40
6824;DHT22;58633;49.470;11.004;2023-05-29T15:18:10;26.70;40.50
6824;DHT22;58633;49.470;11.004;2023-05-29T15:20:37;28.40;42.30
6824;DHT22;58633;49.470;11.004;2023-05-29T15:23:02;28.50;42.90
6824;DHT22;58633;49.470;11.004;2023-05-29T15:25:29;28.40;43.30
6824;DHT22;58633;49.470;11.004;2023-05-29T15:27:55;27.20;39.80
6824;DHT22;58633;49.470;11.004;2023-05-29T15:30:21;27.50;38.00
6824;DHT22;58633;49.470;11.004;2023-05-29T15:32:47;27.10;35.80
6824;DHT22;58633;49.470;11.004;2023-05-29T15:35:14;29.40;37.00
6824;DHT22;58633;49.470;11.004;2023-05-29T15:37:40;27.90;36.40
6824;DHT22;58633;49.470;11.004;2023-05-29T15:40:07;28.30;35.70
6824;DHT22;58633;49.470;11.004;2023-05-29T15:42:32;28.20;36.40
6824;DHT22;58633;49.470;11.004;2023-05-29T15:44:58;28.90;36.30
6824;DHT22;58633;49.470;11.004;2023-05-29T15:47:24;28.30;35.20
6824;DHT22;58633;49.470;11.004;2023-05-29T15:49:50;28.30;35.80
6824;DHT22;58633;49.470;11.004;2023-05-29T15:52:16;28.40;35.50
6824;DHT22;58633;49.470;11.004;2023-05-29T15:54:41;28.40;35.50
6824;DHT22;58633;49.470;11.004;2023-05-29T16:00:44;28.70;34.60
6824;DHT22;58633;49.470;11.004;2023-05-29T16:03:10;28.60;35.70